Grizzly Air Cargo 5382


PAFA
Fairbanks International Airport
Fairbanks, Alaska, US
PAGA
Edward G Pitka Sr. Airport
Galena, Alaska, US

Activity Log

Date Flight Route Aircraft Duration
No Flights Yet

Route Details

Aircraft Information
Primary: Saab 340AF
Backup: Not Available
Route Data
Distance: 234nm
Sched. Duration: 1h 50m
Avg. Duration: 0h 00m (-150m)
Times Flown: 0
Recm'd Route: FAI J122 GAL
Planned Altitude: 24,000ft
Origin Wx: PAFA 210853Z 28004KT 10SM OVC090 M09/M12 A2887 RMK AO2 SLP787 T10891117 410171144 53014
Dest. Wx: PAGA 210856Z 36006G15KT 8SM -SN OVC020 M13/M16 A2909 RMK AO2 SLP854 P0000 60000 T11331156 410891133 53013 FZRANO
Notes:

Financial History
Total Freight: 0lbs
Average Load: 0lbs/flt
Fuel Used: 0lbs
Avg. Fuel Used: 0lbs/flt
Fuel Expense: $0
Avg. Fuel Expense: $0
Avg. Fuel Cost: $0/lbs
Total Gross Income: $0
Pilot Pay: $0
Total Expenses: $0
Total Revenue: $0
Average Revenue: $0